Port Essington, Canada
Current Conditions -  °F | °C
As of 2:00 PM on Thursday 23 Oct 2014 (Local Time) from CYPR Reporting Station
Few Clouds Few Clouds  
Wind Chill: 44°   Ceiling: Unl
Heat Index: 48°   Visibility: 9mi
Dew Point: 41°   Wind: 9mph
Humidity: 76%   Direction: 120°ESE
Pressure: 29.63"   Gusts: NA
Location:  54.15°N, 129.96°W
Report Text: CYPR 232100Z AUTO 12008KT 9SM FEW120 09/05 A2963 RMK SLP036
Loading
Personal Weather Stations






























Interactive Weather Map
Tropical Storm Tracking
New forecast layout! Learn more

10-Day Weather Forecast

Advertisements
Track Severe Weather on mobile